Atlanta, Indiana
Current Conditions -  °F | °C
As of 10:35 PM on Saturday 24 Jan 2015 (Local Time) from KTYQ Reporting Station
Clear Clear  
Wind Chill: 28°   Ceiling: Unl
Heat Index: 33°   Visibility: 10mi
Dew Point: 29°   Wind: 6mph
Humidity: 86%   Direction: 200°SSW
Pressure: 29.73"   Gusts: NA
Location:  40.22°N, 86.03°W
Report Text: KTYQ 250335Z AUTO 20005KT 10SM CLR 01/M01 A2973 RMK AO2 T00061015
Loading
Personal Weather Stations






























Interactive Weather Map New forecast layout! Learn more

10-Day Weather Forecast

Advertisements
Track Severe Weather on mobile